createdAt,value
2019-04-03T00:01:34.410Z,16.10
2019-04-03T00:04:02.637Z,16.17
2019-04-03T00:06:31.306Z,15.80
2019-04-03T00:08:58.538Z,16.53
2019-04-03T00:11:25.788Z,17.57
2019-04-03T00:13:53.119Z,15.97
2019-04-03T00:16:20.436Z,17.67
2019-04-03T00:18:48.058Z,18.43
2019-04-03T00:21:15.409Z,17.57
2019-04-03T00:23:42.637Z,17.50
2019-04-03T00:26:09.984Z,17.53
2019-04-03T00:28:37.202Z,17.80
2019-04-03T00:31:04.487Z,17.63
2019-04-03T00:33:31.783Z,16.70
2019-04-03T00:35:59.033Z,19.90
2019-04-03T00:38:26.467Z,18.97
2019-04-03T00:40:54.355Z,17.47
2019-04-03T00:43:24.305Z,20.40
2019-04-03T00:45:54.057Z,19.43
2019-04-03T00:48:20.702Z,21.47
2019-04-03T00:50:47.970Z,20.97
2019-04-03T00:53:15.272Z,21.13
2019-04-03T00:55:42.638Z,20.47
2019-04-03T00:58:37.948Z,20.97
2019-04-03T01:01:09.683Z,21.47
2019-04-03T01:03:36.939Z,20.17
2019-04-03T01:06:04.630Z,20.50
2019-04-03T01:08:31.985Z,19.30
2019-04-03T01:11:00.407Z,19.50
2019-04-03T01:13:28.242Z,18.83
2019-04-03T01:15:55.563Z,17.50
2019-04-03T01:18:22.760Z,17.10
2019-04-03T01:20:49.998Z,15.90
2019-04-03T01:23:17.275Z,16.53
2019-04-03T01:25:44.489Z,15.83
2019-04-03T01:28:12.029Z,16.13
2019-04-03T01:30:39.360Z,15.93
2019-04-03T01:33:06.603Z,15.50
2019-04-03T01:35:33.889Z,14.33
2019-04-03T01:38:01.142Z,14.63
2019-04-03T01:40:28.505Z,14.80
2019-04-03T01:42:55.901Z,14.53
2019-04-03T01:45:25.245Z,13.77
2019-04-03T01:47:52.355Z,15.37
2019-04-03T01:50:19.631Z,14.67
2019-04-03T01:52:46.923Z,13.73
2019-04-03T01:55:14.297Z,14.13
2019-04-03T01:57:41.646Z,12.93
2019-04-03T02:00:09.664Z,13.67
2019-04-03T02:02:38.776Z,13.53
2019-04-03T02:05:06.996Z,12.67
2019-04-03T02:07:34.261Z,13.20
2019-04-03T02:10:01.527Z,13.73
2019-04-03T02:12:28.729Z,12.53
2019-04-03T02:14:55.939Z,12.87
2019-04-03T02:17:24.054Z,12.80
2019-04-03T02:19:51.602Z,13.97
2019-04-03T02:22:19.060Z,13.47
2019-04-03T02:24:46.337Z,13.90
2019-04-03T02:27:13.607Z,12.60
2019-04-03T02:29:40.918Z,12.00
2019-04-03T02:32:08.392Z,12.47
2019-04-03T02:34:36.619Z,13.13
2019-04-03T02:37:04.516Z,13.97
2019-04-03T02:39:31.834Z,12.50
2019-04-03T02:41:59.435Z,14.27
2019-04-03T02:44:26.897Z,15.53
2019-04-03T02:46:54.321Z,14.77
2019-04-03T02:49:21.598Z,14.33
2019-04-03T02:51:51.544Z,15.33
2019-04-03T02:54:29.803Z,16.17
2019-04-03T02:56:57.628Z,17.47
2019-04-03T02:59:25.948Z,15.43
2019-04-03T03:01:54.133Z,15.07
2019-04-03T03:04:22.398Z,14.93
2019-04-03T03:06:50.127Z,16.13
2019-04-03T03:09:18.498Z,15.80
2019-04-03T03:11:46.147Z,15.30
2019-04-03T03:14:13.973Z,15.00
2019-04-03T03:16:41.606Z,15.83
2019-04-03T03:19:10.635Z,14.70
2019-04-03T03:21:38.704Z,14.87
2019-04-03T03:24:06.458Z,14.30
2019-04-03T03:26:37.533Z,13.97
2019-04-03T03:29:16.241Z,13.07
2019-04-03T03:31:59.682Z,13.20
2019-04-03T03:34:05.274Z,13.67
2019-04-03T03:36:32.917Z,14.70
2019-04-03T03:39:00.984Z,13.43
2019-04-03T03:41:29.429Z,14.33
2019-04-03T03:43:57.437Z,13.73
2019-04-03T03:46:27.784Z,13.10
2019-04-03T03:48:55.383Z,13.60
2019-04-03T03:51:22.950Z,13.50
2019-04-03T03:53:50.892Z,13.87
2019-04-03T03:56:19.713Z,13.03
2019-04-03T03:58:48.807Z,12.33
2019-04-03T04:01:16.424Z,12.40
2019-04-03T04:03:43.980Z,12.90
2019-04-03T04:06:11.473Z,13.97
2019-04-03T04:08:42.662Z,12.30
2019-04-03T04:11:08.105Z,11.43
2019-04-03T04:13:35.876Z,12.60
2019-04-03T04:16:04.958Z,13.73
2019-04-03T04:18:32.726Z,12.73
2019-04-03T04:21:01.103Z,14.20
2019-04-03T04:23:29.306Z,13.10
2019-04-03T04:25:56.863Z,13.70
2019-04-03T04:28:24.211Z,16.00
2019-04-03T04:30:52.141Z,15.30
2019-04-03T04:33:19.402Z,16.67
2019-04-03T04:35:46.660Z,17.47
2019-04-03T04:38:14.080Z,17.77
2019-04-03T04:40:41.512Z,14.77
2019-04-03T04:43:08.935Z,15.40
2019-04-03T04:45:36.186Z,16.20
2019-04-03T04:48:03.775Z,16.10
2019-04-03T04:50:31.000Z,18.20
2019-04-03T04:52:58.723Z,17.30
2019-04-03T04:55:26.721Z,16.73
2019-04-03T04:57:53.946Z,16.73
2019-04-03T05:00:21.225Z,17.60
2019-04-03T05:02:48.865Z,18.17
2019-04-03T05:05:17.703Z,17.03
2019-04-03T05:07:44.970Z,17.70
2019-04-03T05:10:12.411Z,15.57
2019-04-03T05:12:42.548Z,15.17
2019-04-03T05:15:09.035Z,14.87
2019-04-03T05:17:36.295Z,14.07
2019-04-03T05:20:04.717Z,13.53
2019-04-03T05:22:32.031Z,13.90
2019-04-03T05:25:00.018Z,13.40
2019-04-03T05:27:27.474Z,13.17
2019-04-03T05:29:54.917Z,13.60
2019-04-03T05:32:22.252Z,13.30
2019-04-03T05:34:49.495Z,12.67
2019-04-03T05:37:19.872Z,12.93
2019-04-03T05:39:47.106Z,14.80
2019-04-03T05:42:14.583Z,14.80
2019-04-03T05:44:41.962Z,14.60
2019-04-03T05:47:09.403Z,15.17
2019-04-03T05:49:36.702Z,15.57
2019-04-03T05:52:04.687Z,16.93
2019-04-03T05:54:32.358Z,16.67
2019-04-03T05:56:59.581Z,17.47
2019-04-03T05:59:26.958Z,15.97
2019-04-03T06:01:54.225Z,15.77
2019-04-03T06:04:25.939Z,14.10
2019-04-03T06:06:53.180Z,15.93
2019-04-03T06:09:23.161Z,16.63
2019-04-03T06:11:51.918Z,16.23
2019-04-03T06:14:22.664Z,15.53
2019-04-03T06:16:48.824Z,17.57
2019-04-03T06:19:16.089Z,18.13
2019-04-03T06:21:45.615Z,17.83
2019-04-03T06:24:12.764Z,18.50
2019-04-03T06:26:39.976Z,18.83
2019-04-03T06:29:08.148Z,20.10
2019-04-03T06:31:35.464Z,19.80
2019-04-03T06:34:02.751Z,19.30
2019-04-03T06:36:30.025Z,21.07
2019-04-03T06:38:57.723Z,19.03
2019-04-03T06:41:25.418Z,19.07
2019-04-03T06:43:54.528Z,21.33
2019-04-03T06:46:21.862Z,22.17
2019-04-03T06:48:49.364Z,19.87
2019-04-03T06:51:16.928Z,19.17
2019-04-03T06:53:44.231Z,20.43
2019-04-03T06:56:11.524Z,20.93
2019-04-03T06:58:40.176Z,22.47
2019-04-03T07:01:07.679Z,20.27
2019-04-03T07:03:35.113Z,20.10
2019-04-03T07:06:02.453Z,20.70
2019-04-03T07:08:34.859Z,20.10
2019-04-03T07:10:58.889Z,21.20
2019-04-03T07:13:29.123Z,20.53
2019-04-03T07:15:56.852Z,18.10
2019-04-03T07:18:24.483Z,21.03
2019-04-03T07:20:54.015Z,18.93
2019-04-03T07:23:21.643Z,18.87
2019-04-03T07:25:49.051Z,18.30
2019-04-03T07:28:16.539Z,17.47
2019-04-03T07:30:43.821Z,18.83
2019-04-03T07:33:11.179Z,18.80
2019-04-03T07:35:40.448Z,17.97
2019-04-03T07:38:07.664Z,18.87
2019-04-03T07:40:34.942Z,17.93
2019-04-03T07:43:02.258Z,17.97
2019-04-03T07:45:29.549Z,18.37
2019-04-03T07:47:56.847Z,17.17
2019-04-03T07:50:24.431Z,16.20
2019-04-03T07:52:51.867Z,16.67
2019-04-03T07:55:19.239Z,16.13
2019-04-03T07:57:46.618Z,15.60
2019-04-03T08:00:14.576Z,14.37
2019-04-03T08:02:47.203Z,16.63
2019-04-03T08:05:11.422Z,16.60
2019-04-03T08:07:38.739Z,14.93
2019-04-03T08:10:06.185Z,14.20
2019-04-03T08:12:35.434Z,13.77
2019-04-03T08:15:04.098Z,13.87
2019-04-03T08:17:31.375Z,14.33
2019-04-03T08:19:58.756Z,13.10
2019-04-03T08:22:26.013Z,12.80
2019-04-03T08:24:53.826Z,12.33
2019-04-03T08:27:23.742Z,13.17
2019-04-03T08:29:50.930Z,11.97
2019-04-03T08:32:18.431Z,12.23
2019-04-03T08:34:45.697Z,10.53
2019-04-03T08:37:13.244Z,11.27
2019-04-03T08:39:40.523Z,11.07
2019-04-03T08:42:07.856Z,9.80
2019-04-03T08:44:36.074Z,9.80
2019-04-03T08:47:03.547Z,11.10
2019-04-03T08:49:30.928Z,10.83
2019-04-03T08:51:58.268Z,10.83
2019-04-03T08:54:25.596Z,9.80
2019-04-03T08:56:52.837Z,11.07
2019-04-03T08:59:20.341Z,9.23
2019-04-03T09:01:47.742Z,9.90
2019-04-03T09:04:16.791Z,8.73
2019-04-03T09:06:46.632Z,8.40
2019-04-03T09:09:13.915Z,7.53
2019-04-03T09:11:41.284Z,7.90
2019-04-03T09:14:08.600Z,8.10
2019-04-03T09:16:35.853Z,8.43
2019-04-03T09:19:03.192Z,8.43
2019-04-03T09:21:30.476Z,8.90
2019-04-03T09:23:58.343Z,9.17
2019-04-03T09:26:25.861Z,8.43
2019-04-03T09:28:53.133Z,9.50
2019-04-03T09:31:20.816Z,8.80
2019-04-03T09:33:48.353Z,9.07
2019-04-03T09:36:15.784Z,8.33
2019-04-03T09:38:43.210Z,8.90
2019-04-03T09:41:10.534Z,8.90
2019-04-03T09:43:39.647Z,7.80
2019-04-03T09:46:06.966Z,6.97
2019-04-03T09:48:34.879Z,7.00
2019-04-03T09:51:03.603Z,7.47
2019-04-03T09:53:30.830Z,6.47
2019-04-03T09:56:00.232Z,7.27
2019-04-03T09:58:27.502Z,6.77
2019-04-03T10:00:54.806Z,6.90
2019-04-03T10:03:23.828Z,6.93
2019-04-03T10:05:51.246Z,7.53
2019-04-03T10:08:18.596Z,6.43
2019-04-03T10:10:47.094Z,6.77
2019-04-03T10:13:14.990Z,7.40
2019-04-03T10:15:42.570Z,5.80
2019-04-03T10:18:10.151Z,6.43
2019-04-03T10:20:37.731Z,6.20
2019-04-03T10:23:04.910Z,6.10
2019-04-03T10:25:32.286Z,6.00
2019-04-03T10:27:59.488Z,6.27
2019-04-03T10:30:27.483Z,6.00
2019-04-03T10:32:54.797Z,5.77
2019-04-03T10:35:22.059Z,5.30
2019-04-03T10:37:49.325Z,4.90
2019-04-03T10:40:16.969Z,5.80
2019-04-03T10:42:44.285Z,6.53
2019-04-03T10:45:11.693Z,5.63
2019-04-03T10:47:42.809Z,7.00
2019-04-03T10:50:08.794Z,6.40
2019-04-03T10:52:36.132Z,5.70
2019-04-03T10:55:04.002Z,7.43
2019-04-03T10:57:31.754Z,6.70
2019-04-03T11:00:00.434Z,7.67
2019-04-03T11:02:27.687Z,6.60
2019-04-03T11:04:54.927Z,5.93
2019-04-03T11:07:22.390Z,5.80
2019-04-03T11:09:49.658Z,7.07
2019-04-03T11:12:17.041Z,6.23
2019-04-03T11:14:44.922Z,5.93
2019-04-03T11:17:12.135Z,6.63
2019-04-03T11:19:39.747Z,6.50
2019-04-03T11:22:07.300Z,6.27
2019-04-03T11:24:37.725Z,6.60
2019-04-03T11:27:03.846Z,6.30
2019-04-03T11:29:31.103Z,6.53
2019-04-03T11:31:58.709Z,7.33
2019-04-03T11:34:25.966Z,7.20
2019-04-03T11:36:53.190Z,7.20
2019-04-03T11:39:20.563Z,7.77
2019-04-03T11:41:48.344Z,6.60
2019-04-03T11:44:15.562Z,7.50
2019-04-03T11:46:42.815Z,8.57
2019-04-03T11:49:10.283Z,8.00
2019-04-03T11:51:37.522Z,8.23
2019-04-03T11:54:06.759Z,7.53
2019-04-03T11:56:33.949Z,7.60
2019-04-03T11:59:01.178Z,6.60
2019-04-03T12:01:28.806Z,7.50
2019-04-03T12:03:56.216Z,7.10
2019-04-03T12:06:23.527Z,7.03
2019-04-03T12:08:51.679Z,7.67
2019-04-03T12:11:18.940Z,6.93
2019-04-03T12:13:47.244Z,6.97
2019-04-03T12:16:14.503Z,6.83
2019-04-03T12:18:41.796Z,6.63
2019-04-03T12:21:11.690Z,6.10
2019-04-03T12:23:39.398Z,6.10
2019-04-03T12:26:07.060Z,5.53
2019-04-03T12:28:34.365Z,6.13
2019-04-03T12:31:01.607Z,6.03
2019-04-03T12:33:29.112Z,5.30
2019-04-03T12:35:56.472Z,5.10
2019-04-03T12:38:23.889Z,5.87
2019-04-03T12:40:51.261Z,5.70
2019-04-03T12:43:18.701Z,5.87
2019-04-03T12:45:46.044Z,5.67
2019-04-03T12:48:13.266Z,6.20
2019-04-03T12:50:41.561Z,5.57
2019-04-03T12:53:08.789Z,5.33
2019-04-03T12:55:42.035Z,6.20
2019-04-03T12:58:08.247Z,6.40
2019-04-03T13:00:35.937Z,6.60
2019-04-03T13:03:03.456Z,7.07
2019-04-03T13:05:30.757Z,6.93
2019-04-03T13:07:59.823Z,5.93
2019-04-03T13:10:39.219Z,6.80
2019-04-03T13:12:57.170Z,6.47
2019-04-03T13:15:24.805Z,6.37
2019-04-03T13:17:52.229Z,6.97
2019-04-03T13:20:19.426Z,8.17
2019-04-03T13:22:46.680Z,7.70
2019-04-03T13:25:14.247Z,7.20
2019-04-03T13:27:41.823Z,7.07
2019-04-03T13:30:13.835Z,7.13
2019-04-03T13:32:41.870Z,8.17
2019-04-03T13:35:09.574Z,8.90
2019-04-03T13:37:36.807Z,7.80
2019-04-03T13:40:06.458Z,7.80
2019-04-03T13:42:33.915Z,6.70
2019-04-03T13:45:01.618Z,7.80
2019-04-03T13:47:28.882Z,7.83
2019-04-03T13:49:56.256Z,8.47
2019-04-03T13:52:23.496Z,8.07
2019-04-03T13:54:51.124Z,9.53
2019-04-03T13:57:18.490Z,8.47
2019-04-03T13:59:46.076Z,10.00
2019-04-03T14:02:14.575Z,8.30
2019-04-03T14:04:42.383Z,9.43
2019-04-03T14:07:09.792Z,8.40
2019-04-03T14:09:37.149Z,11.07
2019-04-03T14:12:05.329Z,11.23
2019-04-03T14:14:33.845Z,12.20
2019-04-03T14:17:01.554Z,11.90
2019-04-03T14:19:41.852Z,12.73
2019-04-03T14:21:59.947Z,10.87
2019-04-03T14:24:39.264Z,10.70
2019-04-03T14:26:56.863Z,11.13
2019-04-03T14:29:24.164Z,10.83
2019-04-03T14:31:51.384Z,10.57
2019-04-03T14:34:18.731Z,9.93
2019-04-03T14:36:46.085Z,8.37
2019-04-03T14:39:13.848Z,8.30
2019-04-03T14:41:41.197Z,9.17
2019-04-03T14:44:09.758Z,8.67
2019-04-03T14:46:37.326Z,6.83
2019-04-03T14:49:04.787Z,8.27
2019-04-03T14:51:32.055Z,9.03
2019-04-03T14:53:59.287Z,6.90
2019-04-03T14:56:26.568Z,7.13
2019-04-03T14:58:53.811Z,6.70
2019-04-03T15:01:21.349Z,5.67
2019-04-03T15:03:48.969Z,5.33
2019-04-03T15:06:16.698Z,7.00
2019-04-03T15:08:43.963Z,5.20
2019-04-03T15:11:11.249Z,5.83
2019-04-03T15:13:40.469Z,5.57
2019-04-03T15:16:07.729Z,4.40
2019-04-03T15:18:35.259Z,4.90
2019-04-03T15:21:02.472Z,4.20
2019-04-03T15:23:39.968Z,4.50
2019-04-03T15:26:04.450Z,5.07
2019-04-03T15:28:32.378Z,5.60
2019-04-03T15:30:59.781Z,5.40
2019-04-03T15:33:27.427Z,5.53
2019-04-03T15:35:54.800Z,5.40
2019-04-03T15:38:22.110Z,4.73
2019-04-03T15:40:49.361Z,4.50
2019-04-03T15:43:17.347Z,4.27
2019-04-03T15:45:45.552Z,4.70
2019-04-03T15:48:12.816Z,4.83
2019-04-03T15:50:40.113Z,5.07
2019-04-03T15:53:07.390Z,4.20
2019-04-03T15:55:37.032Z,3.70
2019-04-03T15:58:03.809Z,3.80
2019-04-03T16:00:34.339Z,5.47
2019-04-03T16:03:00.628Z,5.10
2019-04-03T16:05:30.603Z,5.30
2019-04-03T16:07:57.476Z,4.37
2019-04-03T16:10:24.877Z,5.47
2019-04-03T16:12:52.186Z,4.67
2019-04-03T16:15:20.176Z,4.90
2019-04-03T16:17:48.630Z,5.60
2019-04-03T16:20:17.614Z,6.93
2019-04-03T16:22:45.232Z,5.30
2019-04-03T16:25:15.570Z,6.90
2019-04-03T16:27:42.070Z,6.60
2019-04-03T16:30:09.840Z,5.97
2019-04-03T16:32:37.616Z,6.50
2019-04-03T16:35:06.052Z,7.13
2019-04-03T16:37:33.624Z,6.03
2019-04-03T16:40:04.147Z,7.37
2019-04-03T16:42:30.183Z,7.07
2019-04-03T16:44:58.216Z,7.83
2019-04-03T16:47:27.620Z,7.17
2019-04-03T16:49:55.928Z,6.73
2019-04-03T16:52:23.290Z,6.87
2019-04-03T16:54:50.904Z,7.80
2019-04-03T16:57:21.469Z,9.07
2019-04-03T16:59:47.325Z,7.67
2019-04-03T17:02:14.556Z,7.60
2019-04-03T17:04:42.273Z,7.40
2019-04-03T17:07:09.804Z,7.10
2019-04-03T17:09:38.765Z,5.93
2019-04-03T17:12:06.661Z,6.60
2019-04-03T17:14:34.208Z,7.10
2019-04-03T17:17:01.848Z,5.73
2019-04-03T17:19:29.587Z,6.33
2019-04-03T17:21:57.181Z,6.20
2019-04-03T17:24:24.669Z,6.17
2019-04-03T17:26:57.341Z,6.70
2019-04-03T17:29:21.112Z,7.27
2019-04-03T17:31:48.451Z,6.50
2019-04-03T17:34:15.873Z,6.00
2019-04-03T17:36:43.260Z,6.80
2019-04-03T17:39:10.489Z,7.43
2019-04-03T17:41:38.018Z,8.83
2019-04-03T17:44:05.888Z,8.03
2019-04-03T17:46:33.179Z,6.77
2019-04-03T17:49:00.476Z,7.17
2019-04-03T17:51:27.695Z,6.50
2019-04-03T17:53:54.915Z,6.53
2019-04-03T17:56:22.191Z,5.80
2019-04-03T17:58:49.479Z,6.60
2019-04-03T18:01:16.756Z,6.30
2019-04-03T18:03:44.029Z,7.17
2019-04-03T18:06:11.269Z,7.67
2019-04-03T18:08:38.535Z,7.37
2019-04-03T18:11:05.828Z,7.33
2019-04-03T18:13:33.079Z,7.23
2019-04-03T18:16:00.343Z,7.47
2019-04-03T18:18:27.712Z,7.70
2019-04-03T18:20:54.971Z,6.80
2019-04-03T18:23:22.291Z,7.63
2019-04-03T18:25:49.656Z,7.20
2019-04-03T18:28:16.947Z,9.43
2019-04-03T18:30:44.390Z,8.93
2019-04-03T18:33:11.629Z,9.53
2019-04-03T18:35:38.860Z,8.70
2019-04-03T18:38:07.997Z,9.30
2019-04-03T18:40:35.238Z,9.57
2019-04-03T18:43:02.475Z,9.27
2019-04-03T18:45:29.802Z,8.63
2019-04-03T18:47:57.247Z,9.33
2019-04-03T18:50:24.598Z,9.73
2019-04-03T18:52:51.959Z,8.80
2019-04-03T18:55:19.304Z,8.30
2019-04-03T18:57:49.537Z,8.93
2019-04-03T19:00:15.972Z,9.17
2019-04-03T19:02:43.299Z,10.37
2019-04-03T19:05:13.790Z,11.00
2019-04-03T19:07:39.994Z,11.40
2019-04-03T19:10:08.042Z,14.00
2019-04-03T19:12:36.211Z,12.90
2019-04-03T19:15:04.159Z,13.87
2019-04-03T19:17:31.404Z,14.37
2019-04-03T19:20:09.651Z,13.53
2019-04-03T19:22:27.816Z,12.67
2019-04-03T19:24:58.470Z,11.80
2019-04-03T19:27:25.316Z,14.23
2019-04-03T19:29:52.582Z,15.43
2019-04-03T19:32:19.842Z,13.10
2019-04-03T19:34:47.256Z,12.37
2019-04-03T19:37:14.492Z,10.10
2019-04-03T19:39:41.737Z,10.80
2019-04-03T19:42:09.005Z,11.67
2019-04-03T19:44:36.313Z,10.00
2019-04-03T19:47:03.763Z,9.93
2019-04-03T19:49:31.097Z,13.40
2019-04-03T19:51:58.311Z,12.53
2019-04-03T19:54:25.597Z,11.03
2019-04-03T19:56:52.851Z,11.77
2019-04-03T19:59:20.098Z,10.57
2019-04-03T20:01:47.374Z,9.27
2019-04-03T20:04:15.961Z,10.83
2019-04-03T20:06:43.683Z,11.53
2019-04-03T20:09:10.990Z,8.73
2019-04-03T20:11:38.226Z,9.20
2019-04-03T20:14:05.469Z,9.03
2019-04-03T20:16:32.750Z,8.50
2019-04-03T20:18:59.987Z,7.53
2019-04-03T20:21:27.265Z,7.67
2019-04-03T20:23:54.542Z,7.97
2019-04-03T20:26:21.818Z,8.87
2019-04-03T20:28:49.099Z,8.90
2019-04-03T20:31:16.385Z,8.50
2019-04-03T20:33:43.631Z,8.50
2019-04-03T20:36:10.874Z,9.23
2019-04-03T20:38:38.138Z,8.63
2019-04-03T20:41:05.356Z,7.60
2019-04-03T20:43:32.667Z,9.00
2019-04-03T20:46:00.050Z,8.77
2019-04-03T20:48:28.291Z,9.37
2019-04-03T20:50:56.015Z,9.10
2019-04-03T20:53:23.240Z,10.00
2019-04-03T20:55:50.474Z,10.70
2019-04-03T20:58:17.723Z,9.70
2019-04-03T21:00:51.455Z,12.70
2019-04-03T21:03:16.460Z,11.83
2019-04-03T21:05:43.713Z,11.17
2019-04-03T21:08:10.955Z,15.80
2019-04-03T21:10:38.165Z,14.83
2019-04-03T21:13:06.896Z,15.70
2019-04-03T21:15:34.567Z,14.90
2019-04-03T21:18:01.819Z,14.93
2019-04-03T21:20:29.074Z,12.83
2019-04-03T21:22:56.335Z,14.90
2019-04-03T21:25:23.590Z,12.40
2019-04-03T21:27:50.844Z,15.83
2019-04-03T21:30:18.198Z,15.77
2019-04-03T21:32:45.429Z,14.60
2019-04-03T21:35:12.706Z,15.93
2019-04-03T21:37:40.647Z,15.90
2019-04-03T21:40:08.300Z,14.43
2019-04-03T21:42:35.621Z,14.17
2019-04-03T21:45:07.115Z,14.07
2019-04-03T21:47:32.149Z,13.93
2019-04-03T21:49:59.412Z,13.83
2019-04-03T21:52:26.630Z,14.77
2019-04-03T21:54:53.880Z,15.23
2019-04-03T21:57:21.178Z,14.40
2019-04-03T21:59:48.383Z,14.27
2019-04-03T22:02:16.185Z,13.73
2019-04-03T22:04:43.939Z,14.53
2019-04-03T22:07:11.184Z,15.43
2019-04-03T22:09:38.411Z,18.23
2019-04-03T22:12:06.554Z,15.13
2019-04-03T22:14:33.844Z,16.43
2019-04-03T22:17:01.092Z,16.10
2019-04-03T22:19:28.345Z,17.17
2019-04-03T22:21:55.554Z,15.53
2019-04-03T22:24:22.902Z,13.53
2019-04-03T22:26:50.174Z,13.77
2019-04-03T22:29:19.794Z,13.60
2019-04-03T22:31:46.612Z,13.60
2019-04-03T22:34:13.869Z,12.73
2019-04-03T22:36:41.146Z,11.93
2019-04-03T22:39:08.793Z,12.77
2019-04-03T22:41:36.144Z,13.33
2019-04-03T22:44:03.576Z,13.07
2019-04-03T22:46:30.883Z,13.40
2019-04-03T22:49:00.030Z,11.93
2019-04-03T22:51:27.273Z,10.97
2019-04-03T22:53:54.515Z,10.23
2019-04-03T22:56:21.791Z,11.33
2019-04-03T22:58:49.100Z,10.60
2019-04-03T23:01:16.343Z,9.93
2019-04-03T23:03:43.608Z,9.67
2019-04-03T23:06:10.840Z,8.83
2019-04-03T23:08:38.064Z,9.00
2019-04-03T23:11:05.335Z,9.80
2019-04-03T23:13:33.830Z,9.27
2019-04-03T23:16:01.734Z,9.57
2019-04-03T23:18:29.031Z,9.70
2019-04-03T23:20:56.332Z,9.87
2019-04-03T23:23:27.075Z,9.23
2019-04-03T23:25:52.730Z,9.93
2019-04-03T23:28:19.944Z,9.17
2019-04-03T23:30:47.171Z,10.83
2019-04-03T23:33:16.691Z,10.93
2019-04-03T23:35:43.588Z,10.47
2019-04-03T23:38:10.806Z,9.83
2019-04-03T23:40:38.076Z,11.73
2019-04-03T23:43:08.545Z,12.43
2019-04-03T23:45:34.582Z,11.10
2019-04-03T23:48:01.895Z,10.97
2019-04-03T23:50:29.143Z,10.53
2019-04-03T23:52:56.426Z,10.13
2019-04-03T23:55:23.678Z,9.33
2019-04-03T23:57:50.902Z,9.43
